Archival Weather

Ahwaz

Ahwaz, Iran (OIAW)

Report from: Sunday, October 1, 2023 11:00 AM +0330
Current time: Friday, July 19, 2024 6:29 AM +0330

Current weather – Weather history – Daily summaries
Weather forecast

Temperature32.0°C (89.6°F)
Heat index30.8°C (87.4°F)
Dew point12.0°C (53.6°F)
Winds 6 kts (3.1 m/s, 6.9 mph) South-Southwest (200°)
Clouds Sky clear
Altimeter29.80 in.Hg (1009 mB)
Relative humidity30 %
Density altitude2,281 ft. (695 m)
Remarks Ceiling and visibility OK
Flight conditions Visual Meteorological Conditions
Raw dataOIAW 010730Z 20006KT CAVOK 32/12 Q1009
An error has occurred. This application may no longer respond until reloaded. Reload 🗙